createdAt,value
2023-02-19T00:01:52.308Z,61.17
2023-02-19T00:05:13.923Z,61.34
2023-02-19T00:08:38.748Z,61.42
2023-02-19T00:12:02.829Z,61.61
2023-02-19T00:15:25.141Z,61.36
2023-02-19T00:18:49.644Z,61.04
2023-02-19T00:22:11.235Z,61.67
2023-02-19T00:25:39.908Z,61.78
2023-02-19T00:29:02.262Z,62.11
2023-02-19T00:32:23.961Z,61.75
2023-02-19T00:35:45.584Z,62.46
2023-02-19T00:39:08.809Z,62.33
2023-02-19T00:42:30.401Z,62.22
2023-02-19T00:45:52.011Z,62.13
2023-02-19T00:49:22.298Z,62.93
2023-02-19T00:52:43.954Z,62.29
2023-02-19T00:56:06.983Z,61.86
2023-02-19T00:59:28.629Z,61.72
2023-02-19T01:02:50.229Z,62.24
2023-02-19T01:06:14.553Z,61.64
2023-02-19T01:09:36.198Z,61.35
2023-02-19T01:12:59.852Z,61.34
2023-02-19T01:16:24.863Z,61.36
2023-02-19T01:19:48.757Z,62.24
2023-02-19T01:23:16.088Z,62.05
2023-02-19T01:26:40.743Z,61.78
2023-02-19T01:30:02.510Z,61.85
2023-02-19T01:33:24.186Z,62.11
2023-02-19T01:36:48.781Z,63.18
2023-02-19T01:40:10.610Z,62.00
2023-02-19T01:43:33.719Z,61.98
2023-02-19T01:46:57.667Z,62.82
2023-02-19T01:50:19.471Z,62.18
2023-02-19T01:53:46.007Z,62.39
2023-02-19T01:57:13.661Z,62.49
2023-02-19T02:00:35.277Z,62.55
2023-02-19T02:03:57.482Z,63.00
2023-02-19T02:07:37.604Z,62.81
2023-02-19T02:11:02.650Z,62.84
2023-02-19T02:14:33.043Z,62.46
2023-02-19T02:18:20.616Z,63.17
2023-02-19T02:22:13.339Z,62.40
2023-02-19T02:25:34.895Z,62.98
2023-02-19T02:29:29.966Z,63.14
2023-02-19T02:32:56.304Z,63.16
2023-02-19T02:36:24.698Z,63.00
2023-02-19T02:39:47.422Z,63.98
2023-02-19T02:43:09.265Z,62.93
2023-02-19T02:46:38.663Z,63.77
2023-02-19T02:50:05.476Z,63.46
2023-02-19T02:54:04.247Z,63.46
2023-02-19T02:57:28.321Z,62.94
2023-02-19T03:01:15.246Z,62.57
2023-02-19T03:05:22.135Z,62.66
2023-02-19T03:08:53.130Z,63.95
2023-02-19T03:12:38.957Z,64.81
2023-02-19T03:16:24.733Z,64.61
2023-02-19T03:19:52.655Z,64.68
2023-02-19T03:23:16.140Z,64.89
2023-02-19T03:26:41.069Z,65.27
2023-02-19T03:30:09.696Z,65.05
2023-02-19T03:33:36.462Z,65.09
2023-02-19T03:37:09.841Z,64.92
2023-02-19T03:40:35.749Z,65.23
2023-02-19T03:44:26.108Z,65.55
2023-02-19T03:48:11.985Z,65.44
2023-02-19T03:51:45.679Z,64.53
2023-02-19T03:55:10.452Z,64.57
2023-02-19T03:58:41.102Z,64.87
2023-02-19T04:02:11.657Z,64.97
2023-02-19T04:05:39.710Z,64.65
2023-02-19T04:09:08.596Z,64.70
2023-02-19T04:12:33.885Z,65.23
2023-02-19T04:16:01.364Z,65.50
2023-02-19T04:19:25.935Z,65.81
2023-02-19T04:22:51.023Z,65.96
2023-02-19T04:26:17.069Z,64.86
2023-02-19T04:29:39.337Z,65.97
2023-02-19T04:33:01.077Z,65.93
2023-02-19T04:36:22.663Z,64.84
2023-02-19T04:39:46.603Z,65.12
2023-02-19T04:43:13.481Z,64.94
2023-02-19T04:46:35.215Z,65.98
2023-02-19T04:50:00.151Z,65.51
2023-02-19T04:53:22.445Z,64.94
2023-02-19T04:56:45.431Z,64.75
2023-02-19T05:00:08.233Z,64.73
2023-02-19T05:03:30.071Z,65.37
2023-02-19T05:06:52.007Z,65.00
2023-02-19T05:10:13.622Z,65.48
2023-02-19T05:13:35.437Z,65.72
2023-02-19T05:16:57.119Z,65.85
2023-02-19T05:20:23.021Z,65.16
2023-02-19T05:23:47.467Z,65.22
2023-02-19T05:27:09.062Z,64.83
2023-02-19T05:30:30.639Z,65.44
2023-02-19T05:33:53.037Z,64.74
2023-02-19T05:37:17.822Z,64.10
2023-02-19T05:40:42.414Z,63.78
2023-02-19T05:44:06.281Z,64.85
2023-02-19T05:47:27.928Z,65.46
2023-02-19T05:50:52.595Z,65.56
2023-02-19T05:54:17.289Z,65.51
2023-02-19T05:57:46.699Z,65.66
2023-02-19T06:01:19.141Z,66.57
2023-02-19T06:04:43.008Z,66.56
2023-02-19T06:08:05.356Z,66.32
2023-02-19T06:11:28.825Z,66.93
2023-02-19T06:14:52.766Z,68.23
2023-02-19T06:18:16.658Z,69.32
2023-02-19T06:21:38.247Z,70.26
2023-02-19T06:24:59.840Z,70.16
2023-02-19T06:28:21.504Z,70.32
2023-02-19T06:31:44.339Z,71.45
2023-02-19T06:35:06.246Z,71.51
2023-02-19T06:38:30.632Z,71.81
2023-02-19T06:41:55.747Z,72.01
2023-02-19T06:45:17.448Z,72.46
2023-02-19T06:48:40.579Z,72.90
2023-02-19T06:52:03.673Z,72.78
2023-02-19T06:55:28.478Z,73.17
2023-02-19T06:58:50.376Z,72.44
2023-02-19T07:02:12.561Z,73.19
2023-02-19T07:05:34.197Z,73.52
2023-02-19T07:09:00.325Z,73.12
2023-02-19T07:12:24.431Z,74.08
2023-02-19T07:15:48.673Z,73.88
2023-02-19T07:19:15.103Z,73.59
2023-02-19T07:22:41.306Z,72.67
2023-02-19T07:26:06.139Z,72.36
2023-02-19T07:29:27.769Z,72.64
2023-02-19T07:32:49.331Z,72.13
2023-02-19T07:36:13.703Z,72.48
2023-02-19T07:39:35.299Z,72.99
2023-02-19T07:42:59.395Z,72.95
2023-02-19T07:46:21.515Z,82.01
2023-02-19T07:49:43.155Z,81.11
2023-02-19T07:53:09.634Z,79.71
2023-02-19T07:56:34.463Z,74.78
2023-02-19T07:59:56.032Z,73.02
2023-02-19T08:03:19.844Z,72.77
2023-02-19T08:06:41.976Z,70.46
2023-02-19T08:10:25.361Z,69.11
2023-02-19T08:13:50.182Z,69.40
2023-02-19T08:17:14.553Z,65.68
2023-02-19T08:20:36.482Z,73.41
2023-02-19T08:23:58.049Z,70.92
2023-02-19T08:27:24.549Z,71.63
2023-02-19T08:30:50.123Z,73.29
2023-02-19T08:34:11.768Z,75.60
2023-02-19T08:37:33.366Z,78.14
2023-02-19T08:40:57.248Z,74.44
2023-02-19T08:44:18.807Z,77.24
2023-02-19T08:47:40.565Z,78.65
2023-02-19T08:51:05.167Z,78.21
2023-02-19T08:54:26.684Z,78.77
2023-02-19T08:57:51.697Z,78.21
2023-02-19T09:01:16.729Z,79.99
2023-02-19T09:04:39.204Z,80.48
2023-02-19T09:08:05.659Z,81.29
2023-02-19T09:11:27.610Z,80.69
2023-02-19T09:14:51.444Z,76.86
2023-02-19T09:18:13.011Z,78.64
2023-02-19T09:21:34.632Z,79.44
2023-02-19T09:24:58.974Z,80.11
2023-02-19T09:28:21.933Z,81.40
2023-02-19T09:31:46.608Z,81.96
2023-02-19T09:35:08.252Z,81.86
2023-02-19T09:38:31.044Z,83.02
2023-02-19T09:41:54.362Z,83.74
2023-02-19T09:45:22.020Z,87.76
2023-02-19T09:48:45.945Z,86.72
2023-02-19T09:52:26.377Z,83.61
2023-02-19T09:55:50.704Z,84.98
2023-02-19T09:59:22.816Z,82.29
2023-02-19T10:02:44.376Z,82.60
2023-02-19T10:06:20.524Z,79.30
2023-02-19T10:09:45.025Z,78.92
2023-02-19T10:13:32.186Z,73.47
2023-02-19T10:16:59.076Z,71.04
2023-02-19T10:20:27.869Z,69.46
2023-02-19T10:23:56.945Z,68.20
2023-02-19T10:27:19.013Z,67.03
2023-02-19T10:30:41.447Z,67.39
2023-02-19T10:34:03.352Z,66.34
2023-02-19T10:37:27.130Z,66.45
2023-02-19T10:40:52.575Z,67.34
2023-02-19T10:44:15.512Z,66.56
2023-02-19T10:47:39.356Z,66.24
2023-02-19T10:51:08.542Z,63.88
2023-02-19T10:54:36.159Z,63.47
2023-02-19T10:58:00.704Z,62.62
2023-02-19T11:01:26.224Z,59.50
2023-02-19T11:05:20.038Z,56.89
2023-02-19T11:08:56.576Z,55.08
2023-02-19T11:12:25.976Z,52.81
2023-02-19T11:15:55.398Z,51.38
2023-02-19T11:19:28.424Z,50.57
2023-02-19T11:22:50.717Z,50.97
2023-02-19T11:26:29.342Z,51.64
2023-02-19T11:29:50.976Z,50.25
2023-02-19T11:33:20.442Z,50.46
2023-02-19T11:36:47.021Z,49.52
2023-02-19T11:40:12.217Z,48.65
2023-02-19T11:43:42.813Z,48.50
2023-02-19T11:47:51.929Z,49.65
2023-02-19T11:51:37.948Z,47.39
2023-02-19T11:55:35.495Z,45.98
2023-02-19T11:59:08.493Z,44.46
2023-02-19T12:03:00.177Z,46.56
2023-02-19T12:06:46.153Z,44.67
2023-02-19T12:10:13.640Z,42.52
2023-02-19T12:14:09.972Z,42.84
2023-02-19T12:17:40.875Z,42.90
2023-02-19T12:21:14.639Z,45.01
2023-02-19T12:24:48.663Z,46.00
2023-02-19T12:28:18.582Z,45.05
2023-02-19T12:31:54.585Z,45.12
2023-02-19T12:35:35.125Z,46.81
2023-02-19T12:38:58.892Z,46.45
2023-02-19T12:42:38.705Z,45.04
2023-02-19T12:46:08.779Z,44.09
2023-02-19T12:49:38.215Z,44.71
2023-02-19T12:53:12.833Z,46.59
2023-02-19T12:56:44.562Z,54.79
2023-02-19T13:00:27.970Z,61.04
2023-02-19T13:04:16.839Z,62.19
2023-02-19T13:07:38.434Z,62.65
2023-02-19T13:11:16.925Z,61.68
2023-02-19T13:14:52.860Z,56.86
2023-02-19T13:18:27.918Z,55.56
2023-02-19T13:22:21.534Z,56.82
2023-02-19T13:26:12.551Z,56.08
2023-02-19T13:30:01.535Z,60.78
2023-02-19T13:33:43.255Z,63.86
2023-02-19T13:37:05.370Z,64.83
2023-02-19T13:40:35.462Z,65.39
2023-02-19T13:44:02.240Z,66.40
2023-02-19T13:47:45.499Z,65.48
2023-02-19T13:51:13.522Z,65.60
2023-02-19T13:54:40.234Z,66.95
2023-02-19T13:58:32.691Z,68.13
2023-02-19T14:01:54.385Z,68.42
2023-02-19T14:06:13.338Z,67.59
2023-02-19T14:09:37.695Z,68.21
2023-02-19T14:13:01.833Z,68.46
2023-02-19T14:16:51.579Z,68.09
2023-02-19T14:20:18.218Z,67.96
2023-02-19T14:23:39.923Z,67.65
2023-02-19T14:27:07.216Z,68.53
2023-02-19T14:30:32.777Z,67.56
2023-02-19T14:34:27.050Z,65.58
2023-02-19T14:37:50.997Z,63.47
2023-02-19T14:41:15.625Z,62.63
2023-02-19T14:44:57.398Z,63.23
2023-02-19T14:48:28.889Z,64.56
2023-02-19T14:52:05.044Z,64.83
2023-02-19T14:55:35.446Z,65.85
2023-02-19T14:59:30.254Z,65.28
2023-02-19T15:02:55.675Z,65.33
2023-02-19T15:06:19.501Z,68.45
2023-02-19T15:09:47.545Z,64.03
2023-02-19T15:13:17.283Z,68.28
2023-02-19T15:16:40.325Z,65.93
2023-02-19T15:20:09.463Z,67.03
2023-02-19T15:23:35.853Z,64.50
2023-02-19T15:27:00.340Z,65.39
2023-02-19T15:30:28.441Z,66.04
2023-02-19T15:33:52.718Z,66.10
2023-02-19T15:37:14.526Z,67.15
2023-02-19T15:40:38.672Z,66.34
2023-02-19T15:44:39.241Z,67.75
2023-02-19T15:48:15.515Z,66.88
2023-02-19T15:51:47.119Z,67.75
2023-02-19T15:55:33.432Z,67.73
2023-02-19T15:59:19.550Z,67.91
2023-02-19T16:02:41.423Z,67.38
2023-02-19T16:06:14.736Z,67.45
2023-02-19T16:09:40.090Z,67.32
2023-02-19T16:13:04.169Z,66.88
2023-02-19T16:16:30.500Z,67.05
2023-02-19T16:19:55.588Z,66.57
2023-02-19T16:23:20.322Z,67.10
2023-02-19T16:26:48.269Z,67.10
2023-02-19T16:30:28.373Z,67.22
2023-02-19T16:33:51.319Z,68.88
2023-02-19T16:37:35.070Z,69.61
2023-02-19T16:41:12.655Z,71.80
2023-02-19T16:44:35.881Z,72.70
2023-02-19T16:47:57.648Z,73.03
2023-02-19T16:51:26.743Z,76.24
2023-02-19T16:54:49.220Z,75.49
2023-02-19T16:58:13.322Z,75.37
2023-02-19T17:01:39.159Z,76.15
2023-02-19T17:05:01.061Z,71.08
2023-02-19T17:08:25.513Z,71.80
2023-02-19T17:11:47.151Z,71.56
2023-02-19T17:15:11.388Z,72.34
2023-02-19T17:18:33.806Z,73.09
2023-02-19T17:21:58.878Z,72.78
2023-02-19T17:25:20.758Z,72.03
2023-02-19T17:28:42.325Z,72.13
2023-02-19T17:32:06.782Z,71.73
2023-02-19T17:35:33.268Z,71.73
2023-02-19T17:38:55.167Z,71.89
2023-02-19T17:42:16.880Z,71.39
2023-02-19T17:45:38.631Z,77.21
2023-02-19T17:49:05.115Z,75.61
2023-02-19T17:52:29.684Z,74.33
2023-02-19T17:55:51.244Z,71.42
2023-02-19T17:59:12.898Z,72.60
2023-02-19T18:02:34.753Z,67.49
2023-02-19T18:05:56.367Z,71.82
2023-02-19T18:09:22.366Z,67.62
2023-02-19T18:12:44.579Z,67.32
2023-02-19T18:16:06.548Z,66.93
2023-02-19T18:19:31.338Z,67.64
2023-02-19T18:22:53.561Z,68.05
2023-02-19T18:26:19.732Z,68.27
2023-02-19T18:29:43.916Z,69.67
2023-02-19T18:33:05.568Z,68.57
2023-02-19T18:36:27.203Z,69.51
2023-02-19T18:39:52.157Z,70.38
2023-02-19T18:43:13.734Z,70.29
2023-02-19T18:46:37.423Z,70.39
2023-02-19T18:49:59.538Z,69.91
2023-02-19T18:53:23.302Z,70.74
2023-02-19T18:56:46.529Z,70.85
2023-02-19T19:00:08.868Z,74.08
2023-02-19T19:03:31.644Z,75.33
2023-02-19T19:06:53.287Z,73.04
2023-02-19T19:10:17.370Z,72.00
2023-02-19T19:13:38.949Z,73.50
2023-02-19T19:17:00.538Z,68.88
2023-02-19T19:20:24.305Z,68.97
2023-02-19T19:23:46.383Z,68.95
2023-02-19T19:27:07.975Z,70.46
2023-02-19T19:30:33.670Z,70.62
2023-02-19T19:33:55.368Z,72.31
2023-02-19T19:37:16.946Z,71.49
2023-02-19T19:40:38.886Z,72.09
2023-02-19T19:44:09.574Z,72.86
2023-02-19T19:47:33.351Z,72.47
2023-02-19T19:50:56.790Z,72.17
2023-02-19T19:54:20.913Z,72.13
2023-02-19T19:57:42.874Z,72.26
2023-02-19T20:01:06.086Z,71.55
2023-02-19T20:04:30.008Z,71.45
2023-02-19T20:07:53.603Z,70.44
2023-02-19T20:11:15.175Z,70.18
2023-02-19T20:14:39.544Z,79.26
2023-02-19T20:18:05.333Z,69.44
2023-02-19T20:21:27.805Z,69.05
2023-02-19T20:24:51.293Z,69.79
2023-02-19T20:28:12.939Z,69.06
2023-02-19T20:31:36.844Z,67.70
2023-02-19T20:35:00.681Z,67.01
2023-02-19T20:38:22.363Z,66.76
2023-02-19T20:41:48.892Z,65.44
2023-02-19T20:45:10.708Z,66.17
2023-02-19T20:48:32.293Z,65.60
2023-02-19T20:51:59.740Z,65.92
2023-02-19T20:55:21.590Z,63.78
2023-02-19T20:58:47.861Z,63.12
2023-02-19T21:02:16.704Z,62.00
2023-02-19T21:05:42.709Z,61.87
2023-02-19T21:09:06.946Z,61.61
2023-02-19T21:12:33.664Z,60.90
2023-02-19T21:15:55.317Z,60.58
2023-02-19T21:19:19.947Z,60.89
2023-02-19T21:22:42.210Z,59.98
2023-02-19T21:26:06.265Z,60.82
2023-02-19T21:29:32.604Z,60.15
2023-02-19T21:32:54.293Z,60.15
2023-02-19T21:36:18.505Z,58.83
2023-02-19T21:39:42.846Z,58.07
2023-02-19T21:43:05.080Z,57.46
2023-02-19T21:46:29.452Z,56.33
2023-02-19T21:49:51.084Z,55.38
2023-02-19T21:53:15.417Z,55.36
2023-02-19T21:56:39.202Z,56.22
2023-02-19T22:00:00.854Z,55.12
2023-02-19T22:03:22.471Z,54.36
2023-02-19T22:06:44.228Z,54.77
2023-02-19T22:10:11.541Z,54.01
2023-02-19T22:13:35.358Z,54.37
2023-02-19T22:16:56.933Z,53.74
2023-02-19T22:20:19.646Z,54.19
2023-02-19T22:23:46.808Z,52.76
2023-02-19T22:27:08.503Z,51.74
2023-02-19T22:30:30.238Z,52.15
2023-02-19T22:33:52.321Z,52.37
2023-02-19T22:37:13.960Z,52.64
2023-02-19T22:40:35.505Z,52.05
2023-02-19T22:43:58.902Z,52.51
2023-02-19T22:47:23.172Z,52.27
2023-02-19T22:50:44.770Z,51.03
2023-02-19T22:54:06.370Z,51.58
2023-02-19T22:57:28.760Z,51.51
2023-02-19T23:00:50.366Z,51.59
2023-02-19T23:04:12.021Z,51.68
2023-02-19T23:07:33.676Z,51.25
2023-02-19T23:10:55.282Z,50.50
2023-02-19T23:14:21.451Z,50.25
2023-02-19T23:17:43.099Z,51.83
2023-02-19T23:21:04.742Z,51.62
2023-02-19T23:24:26.882Z,52.08
2023-02-19T23:27:48.463Z,50.22
2023-02-19T23:31:11.411Z,52.38
2023-02-19T23:34:35.338Z,51.93
2023-02-19T23:37:56.998Z,51.69
2023-02-19T23:41:18.894Z,52.54
2023-02-19T23:44:40.797Z,51.99
2023-02-19T23:48:02.594Z,51.77
2023-02-19T23:51:25.153Z,52.87
2023-02-19T23:54:46.744Z,53.11
2023-02-19T23:58:08.327Z,52.97
